Time;durP1;ratioP1;P1;durP2;ratioP2;P2;SDS_P1;SDS_P2;PMS_P1;PMS_P2;Temp;Humidity;BMP_temperature;BMP_pressure;BME280_temperature;BME280_humidity;BME280_pressure;Samples;Min_cycle;Max_cycle;Signal;HPM_P1;HPM_P2
2023/03/15 00:01:14;;;;;;;4.15;0.80;;;;;;;7.14;52.56;101136.47;4893933;28;114625;-70
2023/03/15 00:03:41;;;;;;;2.75;0.90;;;;;;;7.08;52.35;101129.59;4893029;28;113692;-70
2023/03/15 00:06:09;;;;;;;3.20;0.80;;;;;;;7.03;52.47;101131.50;4893289;28;123708;-70
2023/03/15 00:08:37;;;;;;;2.88;0.93;;;;;;;6.96;52.36;101140.47;4894213;28;123766;-70
2023/03/15 00:11:05;;;;;;;1.10;0.60;;;;;;;6.90;52.49;101132.72;4894096;28;114376;-71
2023/03/15 00:13:33;;;;;;;0.90;0.50;;;;;;;6.82;52.40;101125.88;4893104;28;113817;-70
2023/03/15 00:16:02;;;;;;;2.08;0.70;;;;;;;6.74;52.37;101125.22;4892146;28;123653;-70
2023/03/15 00:18:30;;;;;;;1.85;0.50;;;;;;;6.67;52.60;101118.34;4889583;28;124192;-70
2023/03/15 00:20:57;;;;;;;0.73;0.50;;;;;;;6.61;52.46;101134.28;4876822;28;114579;-70
2023/03/15 00:23:25;;;;;;;0.82;0.50;;;;;;;6.57;52.84;101135.25;4877617;28;113990;-71
2023/03/15 00:25:52;;;;;;;2.05;0.70;;;;;;;6.53;52.83;101141.50;4877188;28;123776;-70
2023/03/15 00:28:20;;;;;;;1.95;0.70;;;;;;;6.51;52.98;101138.03;4873409;28;122963;-71
2023/03/15 00:30:47;;;;;;;0.80;0.60;;;;;;;6.47;52.49;101139.03;4876849;28;115528;-70
2023/03/15 00:33:15;;;;;;;1.30;0.60;;;;;;;6.41;52.93;101148.78;4874475;28;114309;-70
2023/03/15 00:35:44;;;;;;;1.88;0.70;;;;;;;6.38;52.97;101138.31;4877356;28;123748;-70
2023/03/15 00:38:13;;;;;;;0.90;0.52;;;;;;;6.34;53.16;101141.91;4883790;28;124057;-70
2023/03/15 00:40:41;;;;;;;3.75;0.70;;;;;;;6.34;53.08;101151.59;4880795;28;114312;-70
2023/03/15 00:43:08;;;;;;;0.45;0.45;;;;;;;6.34;52.95;101141.91;4877515;28;113932;-71
2023/03/15 00:45:35;;;;;;;1.25;0.57;;;;;;;6.34;53.25;101141.06;4879796;28;124259;-70
2023/03/15 00:48:03;;;;;;;0.90;0.68;;;;;;;6.34;53.27;101147.19;4877525;28;123660;-70
2023/03/15 00:50:30;;;;;;;1.40;0.70;;;;;;;6.35;53.44;101148.06;4875679;28;113668;-70
2023/03/15 00:52:58;;;;;;;1.17;0.75;;;;;;;6.36;53.34;101155.91;4876079;28;113740;-70
2023/03/15 00:55:27;;;;;;;1.17;0.65;;;;;;;6.37;53.54;101152.38;4873969;28;124104;-70
2023/03/15 00:57:55;;;;;;;1.60;0.70;;;;;;;6.38;53.72;101159.34;4874946;28;124220;-70
2023/03/15 01:00:23;;;;;;;1.77;0.70;;;;;;;6.39;53.43;101171.63;4876020;28;114682;-70
2023/03/15 01:02:52;;;;;;;2.70;0.80;;;;;;;6.40;53.59;101167.22;4885544;28;112901;-70
2023/03/15 01:05:21;;;;;;;2.85;0.80;;;;;;;6.38;53.46;101164.63;4880823;28;124366;-70
2023/03/15 01:07:48;;;;;;;3.20;1.00;;;;;;;6.36;53.83;101171.69;4882381;28;123981;-70
2023/03/15 01:10:15;;;;;;;2.55;0.95;;;;;;;6.34;54.10;101172.63;4886611;28;113921;-70
2023/03/15 01:12:43;;;;;;;2.13;0.80;;;;;;;6.32;54.20;101179.69;4876614;28;114173;-70
2023/03/15 01:15:13;;;;;;;2.33;0.82;;;;;;;6.30;54.04;101187.59;4875555;28;124323;-70
2023/03/15 01:17:41;;;;;;;1.20;0.90;;;;;;;6.29;54.10;101190.25;4886721;28;123861;-70
2023/03/15 01:20:11;;;;;;;1.75;1.15;;;;;;;6.27;54.15;101198.19;4890711;28;114868;-70
2023/03/15 01:22:38;;;;;;;1.90;1.00;;;;;;;6.25;54.46;101189.47;4879424;28;114348;-70
2023/03/15 01:25:08;;;;;;;2.53;1.10;;;;;;;6.25;54.11;101194.72;4872221;28;124590;-70
2023/03/15 01:27:35;;;;;;;3.60;1.25;;;;;;;6.23;54.42;101199.16;4873828;28;123375;-71
2023/03/15 01:30:03;;;;;;;3.92;1.60;;;;;;;6.21;54.31;101198.31;4874612;28;114082;-71
2023/03/15 01:32:30;;;;;;;3.83;1.40;;;;;;;6.19;54.38;101205.38;4873968;28;113375;-71
2023/03/15 01:34:57;;;;;;;3.28;1.60;;;;;;;6.17;54.54;101208.03;4873700;28;123819;-71
2023/03/15 01:37:25;;;;;;;3.50;1.35;;;;;;;6.15;54.61;101208.97;4873900;28;123711;-71
2023/03/15 01:39:52;;;;;;;2.92;1.50;;;;;;;6.12;54.51;101211.66;4874832;28;114659;-71
2023/03/15 01:42:19;;;;;;;3.55;1.70;;;;;;;6.09;54.54;101219.63;4888651;28;114588;-71
2023/03/15 01:44:50;;;;;;;2.58;1.30;;;;;;;6.06;54.71;101214.44;4880528;28;123517;-71
2023/03/15 01:47:18;;;;;;;3.15;1.30;;;;;;;6.01;54.63;101218.03;4889731;28;123459;-71
2023/03/15 01:49:51;;;;;;;2.15;1.00;;;;;;;5.96;54.78;101230.38;4893504;28;114756;-71
2023/03/15 01:52:25;;;;;;;2.10;1.30;;;;;;;5.90;54.48;101229.63;4900590;28;113343;-71
2023/03/15 01:55:12;;;;;;;1.40;0.90;;;;;;;5.82;54.80;101232.38;4890834;28;124395;-71
2023/03/15 01:57:56;;;;;;;1.58;0.90;;;;;;;5.77;54.77;101228.97;4890885;28;123325;-71
2023/03/15 02:00:25;;;;;;;1.52;0.90;;;;;;;5.71;54.66;101234.31;4882437;28;113545;-71
2023/03/15 02:03:29;;;;;;;2.28;1.10;;;;;;;5.65;55.06;101230.94;4890877;28;113135;-71
2023/03/15 02:06:03;;;;;;;0.95;0.68;;;;;;;5.63;55.05;101227.47;4870970;28;123344;-71
2023/03/15 02:09:07;;;;;;;1.30;0.80;;;;;;;5.60;54.88;101224.91;4871216;28;123324;-71
2023/03/15 02:11:37;;;;;;;1.08;0.70;;;;;;;5.59;54.92;101212.63;4890377;28;114504;-71
2023/03/15 02:14:05;;;;;;;0.80;0.65;;;;;;;5.59;55.25;101215.28;4890377;28;115337;-71
2023/03/15 02:16:36;;;;;;;1.60;0.77;;;;;;;5.59;54.95;101207.38;4890366;28;124014;-71
2023/03/15 02:19:19;;;;;;;1.30;0.80;;;;;;;5.59;55.46;101220.53;4891746;28;122086;-70
2023/03/15 02:22:21;;;;;;;1.38;0.95;;;;;;;5.58;55.18;101218.81;4879308;28;113562;-71
2023/03/15 02:25:03;;;;;;;1.15;0.80;;;;;;;5.57;55.60;101211.81;4890388;28;113130;-71
2023/03/15 02:27:34;;;;;;;2.45;1.05;;;;;;;5.60;55.52;101216.16;4890939;28;124100;-70
2023/03/15 02:30:03;;;;;;;2.35;1.05;;;;;;;5.63;55.56;101227.47;4881877;28;123053;-70
2023/03/15 02:32:30;;;;;;;2.30;1.20;;;;;;;5.66;55.55;101227.41;4890537;28;114674;-71
2023/03/15 02:34:58;;;;;;;1.88;1.10;;;;;;;5.68;55.80;101229.16;4891009;28;112950;-71
2023/03/15 02:37:25;;;;;;;1.98;1.30;;;;;;;5.69;55.51;101229.13;4874268;28;123407;-71
2023/03/15 02:39:52;;;;;;;1.95;1.30;;;;;;;5.71;55.79;101226.44;4890080;28;123198;-71
2023/03/15 02:42:19;;;;;;;2.00;1.30;;;;;;;5.72;56.18;101228.19;4874979;28;113049;-71
2023/03/15 02:44:48;;;;;;;2.85;1.48;;;;;;;5.73;56.06;101230.78;4890198;28;114057;-71
2023/03/15 02:47:21;;;;;;;2.28;1.75;;;;;;;5.75;56.12;101225.53;4885278;28;123381;-70
2023/03/15 02:49:50;;;;;;;2.97;1.40;;;;;;;5.77;56.01;101223.72;4882779;28;123672;-71
2023/03/15 02:52:18;;;;;;;1.98;1.38;;;;;;;5.77;55.93;101229.84;4885924;28;114568;-71
2023/03/15 02:54:45;;;;;;;2.30;1.30;;;;;;;5.80;56.02;101229.78;4872944;28;114720;-71
2023/03/15 02:57:14;;;;;;;2.45;1.20;;;;;;;5.83;56.11;101229.72;4871919;28;123070;-71
2023/03/15 02:59:42;;;;;;;1.90;1.10;;;;;;;5.85;56.04;101232.31;4882892;28;123618;-71
2023/03/15 03:02:11;;;;;;;1.80;1.10;;;;;;;5.88;56.00;101242.78;4889107;28;114774;-71
2023/03/15 03:04:41;;;;;;;2.55;1.23;;;;;;;5.88;55.99;101253.31;4873436;28;115009;-71
2023/03/15 03:07:08;;;;;;;6.18;1.20;;;;;;;5.89;56.20;101257.66;4889408;28;124997;-71
2023/03/15 03:09:44;;;;;;;2.08;1.40;;;;;;;5.89;56.03;101257.66;4887835;28;123084;-71
2023/03/15 03:12:12;;;;;;;2.35;1.40;;;;;;;5.90;56.05;101256.75;4889823;28;114057;-71
2023/03/15 03:14:42;;;;;;;1.92;1.38;;;;;;;5.93;56.42;101263.72;4882739;28;113483;-71
2023/03/15 03:17:12;;;;;;;2.78;1.50;;;;;;;5.93;56.32;101272.47;4889125;28;124483;-71
2023/03/15 03:19:41;;;;;;;2.60;1.58;;;;;;;5.96;56.44;101275.06;4888028;28;123609;-71
2023/03/15 03:22:12;;;;;;;1.67;1.30;;;;;;;5.97;56.54;101279.44;4889382;28;113783;-71
2023/03/15 03:24:44;;;;;;;3.63;1.58;;;;;;;5.98;56.30;101286.44;4871981;28;113722;-71
2023/03/15 03:27:16;;;;;;;2.65;1.90;;;;;;;6.01;56.26;101288.16;4870619;28;123548;-71
2023/03/15 03:29:45;;;;;;;3.28;1.90;;;;;;;6.01;56.54;101289.00;4877153;28;123041;-71
2023/03/15 03:32:13;;;;;;;2.40;1.50;;;;;;;6.01;56.20;101296.91;4888505;28;113391;-71
2023/03/15 03:34:41;;;;;;;2.88;1.67;;;;;;;6.01;56.38;101302.16;4878803;28;112865;-71
2023/03/15 03:37:08;;;;;;;3.28;2.13;;;;;;;6.01;56.41;101307.41;4890874;28;124602;-71
2023/03/15 03:39:58;;;;;;;3.28;1.88;;;;;;;6.01;56.17;101306.56;4889233;28;123903;-71
2023/03/15 03:42:26;;;;;;;3.17;2.05;;;;;;;6.01;56.08;101311.81;4888822;28;113389;-71
2023/03/15 03:44:53;;;;;;;4.00;2.50;;;;;;;6.00;56.13;101321.44;4873369;28;113327;-71
2023/03/15 03:47:22;;;;;;;3.92;2.30;;;;;;;5.98;56.29;101315.34;4882730;28;123195;-71
2023/03/15 03:49:49;;;;;;;4.05;2.30;;;;;;;5.96;56.40;101319.78;4867174;28;123175;-71
2023/03/15 03:52:16;;;;;;;3.83;2.42;;;;;;;5.95;56.20;101323.31;4888850;28;115119;-71
2023/03/15 03:54:44;;;;;;;4.05;2.55;;;;;;;5.93;56.23;101330.28;4889820;28;114512;-71
2023/03/15 03:57:11;;;;;;;4.47;2.72;;;;;;;5.93;56.25;101335.56;4889610;28;123232;-71
2023/03/15 03:59:39;;;;;;;3.97;2.65;;;;;;;5.93;56.38;101343.44;4888428;28;123107;-71
2023/03/15 04:02:08;;;;;;;4.82;3.10;;;;;;;5.91;56.14;101342.59;4889788;28;113856;-71
2023/03/15 04:04:39;;;;;;;4.30;2.83;;;;;;;5.88;56.37;101337.41;4889647;28;113031;-71
2023/03/15 04:07:11;;;;;;;5.32;3.13;;;;;;;5.87;55.99;101348.81;4890206;28;123416;-71
2023/03/15 04:09:40;;;;;;;6.30;3.22;;;;;;;5.85;56.32;101342.72;4890635;28;123538;-71
2023/03/15 04:12:08;;;;;;;4.38;2.92;;;;;;;5.82;56.33;101342.75;4889917;28;113208;-71
2023/03/15 04:14:37;;;;;;;4.22;2.90;;;;;;;5.81;56.22;101346.31;4888551;28;113809;-70
2023/03/15 04:17:07;;;;;;;4.57;2.90;;;;;;;5.77;56.23;101355.13;4888367;28;123779;-70
2023/03/15 04:19:35;;;;;;;4.93;2.92;;;;;;;5.76;56.36;101358.66;4887679;28;122895;-70
2023/03/15 04:22:05;;;;;;;5.00;2.80;;;;;;;5.74;56.33;101360.44;4889102;28;114565;-70
2023/03/15 04:24:56;;;;;;;6.05;3.20;;;;;;;5.73;56.33;101358.72;4890067;28;113688;-70
2023/03/15 04:27:58;;;;;;;5.50;3.13;;;;;;;5.69;56.02;101357.91;4874625;28;123943;-70
2023/03/15 04:30:47;;;;;;;5.57;3.20;;;;;;;5.68;56.25;101371.06;4887030;28;123795;-70
2023/03/15 04:33:35;;;;;;;8.85;3.60;;;;;;;5.65;56.35;101371.94;4894020;28;96756;-70
2023/03/15 04:36:21;;;;;;;;;;;;;;;5.60;55.98;101379.94;4895668;28;115864;-70
2023/03/15 04:39:07;;;;;;;9.20;3.43;;;;;;;5.59;56.10;101388.69;4893871;28;124891;-70
2023/03/15 04:42:00;;;;;;;10.45;4.35;;;;;;;5.55;56.04;101392.25;4891394;28;123023;-70
2023/03/15 04:44:47;;;;;;;7.88;4.40;;;;;;;5.52;56.22;101391.44;4892002;28;115210;-70
2023/03/15 04:47:34;;;;;;;7.78;4.35;;;;;;;5.50;56.04;101404.63;4892130;28;115285;-70
2023/03/15 04:50:21;;;;;;;8.23;4.18;;;;;;;5.46;56.08;101398.53;4893173;28;124896;-72
2023/03/15 04:53:15;;;;;;;9.30;5.07;;;;;;;5.43;56.38;101402.97;4892118;28;123003;-72
2023/03/15 04:55:53;;;;;;;7.07;4.45;;;;;;;5.41;56.42;101399.50;4892358;28;114108;-72
2023/03/15 04:58:32;;;;;;;7.35;4.85;;;;;;;5.41;56.35;101404.75;4887445;28;113033;-73
2023/03/15 05:01:06;;;;;;;8.13;4.95;;;;;;;5.40;56.36;101413.50;4872225;28;123051;-73
2023/03/15 05:03:49;;;;;;;10.57;5.32;;;;;;;5.39;56.62;101414.41;4882183;28;122633;-73
2023/03/15 05:06:35;;;;;;;;;;;;;;;5.36;56.31;101417.94;4894279;28;115319;-73
2023/03/15 05:09:20;;;;;;;9.82;5.53;;;;;;;5.36;56.15;101419.69;4880195;28;115530;-73
2023/03/15 05:12:01;;;;;;;10.95;5.55;;;;;;;5.34;56.39;101432.00;4872151;28;123722;-72
2023/03/15 05:14:45;;;;;;;11.88;6.38;;;;;;;5.34;56.45;101434.63;4883872;28;123341;-72
2023/03/15 05:17:32;;;;;;;11.30;6.00;;;;;;;5.33;56.56;101433.75;4879188;28;114624;-72
2023/03/15 05:20:09;;;;;;;11.88;6.18;;;;;;;5.31;56.82;101429.38;4872785;28;113686;-72
2023/03/15 05:22:58;;;;;;;12.88;6.47;;;;;;;5.32;56.74;101439.03;4877157;28;124170;-72
2023/03/15 05:25:54;;;;;;;10.95;5.72;;;;;;;5.31;56.45;101440.75;4879639;28;124042;-72
2023/03/15 05:28:44;;;;;;;10.13;5.53;;;;;;;5.31;56.67;101445.16;4891719;28;113869;-72
2023/03/15 05:31:35;;;;;;;11.07;6.07;;;;;;;5.32;56.81;101446.91;4882140;28;114738;-72
2023/03/15 05:34:06;;;;;;;10.73;6.05;;;;;;;5.32;56.81;101447.75;4890789;28;124561;-73
2023/03/15 05:36:51;;;;;;;10.70;6.00;;;;;;;5.34;56.50;101450.38;4872843;28;124226;-72
2023/03/15 05:39:27;;;;;;;11.18;5.70;;;;;;;5.35;56.82;101449.47;4873791;28;116300;-72
2023/03/15 05:42:06;;;;;;;10.13;5.35;;;;;;;5.34;56.90;101456.47;4873505;28;114638;-72
2023/03/15 05:44:36;;;;;;;12.48;6.43;;;;;;;5.36;56.78;101459.09;4883601;28;124752;-72
2023/03/15 05:47:27;;;;;;;11.77;5.85;;;;;;;5.34;56.57;101458.25;4887304;28;123861;-72
2023/03/15 05:50:00;;;;;;;12.52;6.63;;;;;;;5.33;56.51;101469.63;4886670;28;114519;-73
2023/03/15 05:52:49;;;;;;;11.27;6.40;;;;;;;5.34;56.79;101471.38;4891782;28;113204;-72
2023/03/15 05:55:45;;;;;;;11.05;5.75;;;;;;;5.33;56.49;101474.88;4878291;28;124235;-70
2023/03/15 05:58:29;;;;;;;11.82;6.32;;;;;;;5.34;56.48;101476.63;4892074;28;125573;-71
2023/03/15 06:01:18;;;;;;;12.23;6.10;;;;;;;5.34;56.76;101487.13;4891243;28;113410;-70
2023/03/15 06:04:07;;;;;;;13.35;6.60;;;;;;;5.34;56.80;101487.13;4891638;28;113171;-72
2023/03/15 06:06:35;;;;;;;13.43;6.28;;;;;;;5.34;56.53;101492.41;4874795;28;124324;-72
2023/03/15 06:09:05;;;;;;;11.50;6.25;;;;;;;5.36;56.70;101495.88;4884915;28;125062;-72
2023/03/15 06:11:33;;;;;;;12.90;6.50;;;;;;;5.36;56.77;101503.75;4890762;28;113444;-73
2023/03/15 06:14:01;;;;;;;14.55;6.80;;;;;;;5.36;56.82;101506.38;4891660;28;113268;-73
2023/03/15 06:16:49;;;;;;;17.90;7.18;;;;;;;5.37;56.55;101514.25;4882028;28;124037;-71
2023/03/15 06:19:17;;;;;;;12.57;6.97;;;;;;;5.37;56.31;101518.59;4889257;28;123794;-71
2023/03/15 06:21:44;;;;;;;13.18;6.43;;;;;;;5.36;56.73;101522.13;4875242;28;114177;-71
2023/03/15 06:24:20;;;;;;;12.23;6.05;;;;;;;5.36;56.85;101527.38;4873746;28;114320;-70
2023/03/15 06:26:47;;;;;;;11.43;5.65;;;;;;;5.37;56.91;101519.50;4881330;28;123569;-71
2023/03/15 06:29:16;;;;;;;15.05;6.05;;;;;;;5.39;56.91;101527.34;4881027;28;123602;-71
2023/03/15 06:31:48;;;;;;;13.80;5.45;;;;;;;5.41;56.65;101525.59;4884392;28;114840;-70
2023/03/15 06:34:16;;;;;;;13.52;5.93;;;;;;;5.42;56.66;101535.19;4882348;28;114776;-71
2023/03/15 06:36:44;;;;;;;13.13;6.00;;;;;;;5.44;56.87;101536.03;4881563;28;123236;-71
2023/03/15 06:39:11;;;;;;;12.60;6.03;;;;;;;5.45;56.67;101532.53;4880730;28;123243;-70
2023/03/15 06:41:42;;;;;;;15.63;5.50;;;;;;;5.46;57.12;101534.25;4880994;28;114355;-71
2023/03/15 06:44:15;;;;;;;14.48;5.85;;;;;;;5.49;57.01;101555.25;4879344;28;113181;-71
2023/03/15 06:46:43;;;;;;;14.10;5.95;;;;;;;5.49;56.54;101555.25;4901980;28;124219;-70
2023/03/15 06:49:10;;;;;;;12.68;5.97;;;;;;;5.51;56.97;101563.97;4886752;28;123166;-71
2023/03/15 06:51:38;;;;;;;16.15;5.90;;;;;;;5.54;56.97;101569.19;4891690;28;113657;-71
2023/03/15 06:54:05;;;;;;;13.52;5.78;;;;;;;5.59;56.95;101571.75;4891310;28;113460;-70
2023/03/15 06:56:36;;;;;;;14.07;6.22;;;;;;;5.66;57.09;101574.28;4906359;28;122154;-70
2023/03/15 06:59:03;;;;;;;14.75;6.18;;;;;;;5.74;57.29;101571.56;4889324;28;123976;-70
2023/03/15 07:01:30;;;;;;;11.88;6.20;;;;;;;5.85;57.45;101579.28;4888443;28;113566;-70
2023/03/15 07:03:57;;;;;;;12.30;5.72;;;;;;;5.96;57.45;101581.81;4889206;28;114396;-70
2023/03/15 07:06:26;;;;;;;13.82;6.22;;;;;;;6.09;57.43;101590.41;4890453;28;124032;-71
2023/03/15 07:08:53;;;;;;;16.08;6.90;;;;;;;6.22;57.61;101594.59;4882558;28;123657;-71
2023/03/15 07:11:20;;;;;;;14.38;6.20;;;;;;;6.33;57.48;101600.56;4892227;28;114567;-71
2023/03/15 07:13:48;;;;;;;12.75;5.78;;;;;;;6.43;57.10;101610.03;4906268;28;114509;-70
2023/03/15 07:16:15;;;;;;;15.57;6.30;;;;;;;6.51;57.41;101614.31;4897075;28;121666;-71
2023/03/15 07:18:42;;;;;;;13.40;6.10;;;;;;;6.58;57.19;101623.88;4889878;28;124487;-70
2023/03/15 07:21:09;;;;;;;12.18;6.38;;;;;;;6.67;57.76;101623.72;4887284;28;115331;-71
2023/03/15 07:23:36;;;;;;;16.30;6.28;;;;;;;6.81;57.70;101632.25;4888664;28;114251;-71
2023/03/15 07:26:03;;;;;;;12.98;6.10;;;;;;;6.96;57.78;101635.53;4889256;28;124627;-71
2023/03/15 07:28:30;;;;;;;11.50;5.90;;;;;;;7.08;57.76;101635.28;4889419;28;123561;-71
2023/03/15 07:31:03;;;;;;;14.00;6.28;;;;;;;7.22;57.68;101649.09;4890475;28;114015;-71
2023/03/15 07:33:32;;;;;;;15.00;6.15;;;;;;;7.35;57.80;101648.88;4882073;28;114967;-71
2023/03/15 07:36:00;;;;;;;11.63;5.88;;;;;;;7.43;57.34;101651.38;4882941;28;124004;-71
2023/03/15 07:38:28;;;;;;;14.25;6.35;;;;;;;7.45;57.20;101660.97;4879876;28;123693;-71
2023/03/15 07:41:00;;;;;;;11.18;5.55;;;;;;;7.47;57.68;101664.44;4888564;28;114758;-71
2023/03/15 07:43:28;;;;;;;11.70;5.90;;;;;;;7.53;57.27;101664.31;4889350;28;113022;-71
2023/03/15 07:46:08;;;;;;;11.63;4.68;;;;;;;7.59;57.39;101663.34;4882247;28;124867;-70
2023/03/15 07:48:35;;;;;;;9.80;5.03;;;;;;;7.66;57.68;101664.09;4885329;28;123635;-71
2023/03/15 07:51:03;;;;;;;10.95;5.43;;;;;;;7.72;57.45;101666.59;4888360;28;113994;-71
2023/03/15 07:53:30;;;;;;;7.97;4.22;;;;;;;7.78;57.33;101669.16;4886979;28;113625;-71
2023/03/15 07:55:57;;;;;;;10.35;4.75;;;;;;;7.85;57.29;101670.72;4885323;28;123761;-71
2023/03/15 07:58:25;;;;;;;10.05;4.80;;;;;;;7.93;57.65;101668.81;4885336;28;123497;-71
2023/03/15 08:00:56;;;;;;;9.50;4.25;;;;;;;8.05;57.53;101672.09;4873955;28;114280;-71
2023/03/15 08:03:25;;;;;;;9.48;4.53;;;;;;;8.14;57.95;101687.75;4874232;28;113480;-71
2023/03/15 08:05:53;;;;;;;9.80;4.40;;;;;;;8.21;57.65;101684.03;4889787;28;123160;-71
2023/03/15 08:08:20;;;;;;;9.13;3.92;;;;;;;8.26;57.23;101681.31;4892973;28;124581;-71
2023/03/15 08:10:47;;;;;;;9.07;3.92;;;;;;;8.30;57.33;101683.84;4864913;28;115226;-71
2023/03/15 08:13:14;;;;;;;8.27;3.72;;;;;;;8.33;57.23;101689.06;4894804;28;114058;-71
2023/03/15 08:15:45;;;;;;;7.28;3.50;;;;;;;8.38;57.50;101702.16;4884080;28;123712;-71
2023/03/15 08:18:13;;;;;;;13.00;3.65;;;;;;;8.39;57.19;101704.75;4886315;28;123450;-71
2023/03/15 08:20:40;;;;;;;6.90;3.13;;;;;;;8.41;57.10;101717.06;4883758;28;113663;-71
2023/03/15 08:23:08;;;;;;;11.05;3.47;;;;;;;8.43;57.23;101717.94;4885146;28;113749;-71
2023/03/15 08:25:39;;;;;;;10.25;2.80;;;;;;;8.44;57.04;101722.31;4891254;28;123904;-71
2023/03/15 08:28:06;;;;;;;9.75;3.42;;;;;;;8.45;56.89;101729.34;4873039;28;124217;-70
2023/03/15 08:30:33;;;;;;;5.75;3.03;;;;;;;8.47;56.98;101727.53;4884725;28;114377;-71
2023/03/15 08:33:00;;;;;;;7.57;2.42;;;;;;;8.50;56.84;101727.47;4873083;28;113580;-70
2023/03/15 08:35:28;;;;;;;7.60;3.08;;;;;;;8.53;57.19;101732.66;4874093;28;124261;-71
2023/03/15 08:37:55;;;;;;;8.52;2.90;;;;;;;8.57;56.86;101739.63;4872045;28;124609;-70
2023/03/15 08:40:23;;;;;;;8.63;3.60;;;;;;;8.63;56.90;101749.19;4874928;28;114280;-71
2023/03/15 08:42:52;;;;;;;7.60;3.75;;;;;;;8.67;57.18;101751.72;4874934;28;113950;-71
2023/03/15 08:45:20;;;;;;;8.15;3.28;;;;;;;8.71;56.91;101745.47;4876264;28;123289;-71
2023/03/15 08:47:47;;;;;;;6.30;3.10;;;;;;;8.77;56.85;101747.94;4892882;28;124443;-71
2023/03/15 08:50:15;;;;;;;7.50;3.85;;;;;;;8.82;56.78;101739.06;4889739;28;113370;-71
2023/03/15 08:52:42;;;;;;;7.40;3.40;;;;;;;8.89;57.04;101746.81;4892096;28;115374;-71
2023/03/15 08:55:13;;;;;;;14.63;3.90;;;;;;;8.98;56.97;101745.72;4890456;28;123851;-71
2023/03/15 08:57:40;;;;;;;8.70;3.22;;;;;;;9.07;57.08;101750.78;4888661;28;124008;-71
2023/03/15 09:00:08;;;;;;;8.25;3.10;;;;;;;9.18;57.09;101752.31;4887805;28;115006;-71
2023/03/15 09:02:36;;;;;;;6.68;2.65;;;;;;;9.26;56.70;101755.63;4887252;28;114883;-71
2023/03/15 09:05:05;;;;;;;7.78;2.58;;;;;;;9.36;56.85;101757.13;4889780;28;123729;-71
2023/03/15 09:07:33;;;;;;;6.80;2.30;;;;;;;9.44;56.86;101760.44;4891343;28;124632;-71
2023/03/15 09:10:00;;;;;;;6.25;2.28;;;;;;;9.51;56.69;101756.75;4889130;28;114838;-71
2023/03/15 09:12:31;;;;;;;6.25;2.20;;;;;;;9.57;56.44;101770.69;4889640;28;114586;-71
2023/03/15 09:14:58;;;;;;;8.43;2.30;;;;;;;9.61;56.74;101761.78;4884815;28;125326;-70
2023/03/15 09:17:25;;;;;;;7.25;2.50;;;;;;;9.66;56.70;101770.47;4881065;28;123125;-71
2023/03/15 09:19:52;;;;;;;8.73;2.20;;;;;;;9.73;56.33;101766.75;4892617;28;114818;-70
2023/03/15 09:22:19;;;;;;;8.40;2.20;;;;;;;9.80;56.29;101770.97;4883486;28;114111;-71
2023/03/15 09:25:05;;;;;;;8.88;2.10;;;;;;;9.91;56.34;101758.31;4889359;28;123575;-71
2023/03/15 09:27:32;;;;;;;4.75;2.17;;;;;;;10.03;56.08;101764.19;4892436;28;124627;-71
2023/03/15 09:30:00;;;;;;;7.45;1.80;;;;;;;10.11;55.85;101767.47;4884330;28;113556;-71
2023/03/15 09:32:27;;;;;;;5.22;1.90;;;;;;;10.20;55.79;101772.50;4882043;28;112804;-71
2023/03/15 09:34:54;;;;;;;6.10;1.77;;;;;;;10.28;55.84;101773.16;4892864;28;124059;-71
2023/03/15 09:37:21;;;;;;;8.15;1.92;;;;;;;10.36;55.66;101772.09;4892735;28;124463;-71
2023/03/15 09:39:48;;;;;;;5.15;1.60;;;;;;;10.46;55.61;101768.28;4892392;28;113964;-71
2023/03/15 09:42:23;;;;;;;8.70;1.85;;;;;;;10.55;55.19;101767.13;4889201;28;113952;-71
2023/03/15 09:45:12;;;;;;;8.23;1.73;;;;;;;10.62;55.21;101764.22;4895578;28;124444;-71
2023/03/15 09:47:48;;;;;;;5.07;1.30;;;;;;;10.71;55.20;101769.25;4885972;28;124152;-71
2023/03/15 09:50:17;;;;;;;;;;;;;;;10.79;55.23;101765.50;4890217;28;115039;-71
2023/03/15 09:52:57;;;;;;;4.68;1.48;;;;;;;10.86;54.95;101772.34;4887445;28;114789;-71
2023/03/15 09:55:26;;;;;;;5.72;1.52;;;;;;;10.93;54.79;101768.59;4885374;28;123423;-71
2023/03/15 09:58:09;;;;;;;8.32;1.70;;;;;;;10.97;54.36;101770.22;4891650;28;123894;-71
2023/03/15 10:00:51;;;;;;;6.32;1.55;;;;;;;11.02;54.86;101768.31;4879098;28;114254;-71
2023/03/15 10:03:38;;;;;;;4.35;1.60;;;;;;;11.10;54.44;101771.56;4890143;28;113726;-72
2023/03/15 10:06:17;;;;;;;6.32;1.73;;;;;;;11.21;54.06;101767.72;4889150;28;124338;-71
2023/03/15 10:08:46;;;;;;;5.75;1.67;;;;;;;11.30;54.18;101775.34;4878727;28;123513;-71
2023/03/15 10:11:23;;;;;;;7.22;1.83;;;;;;;11.41;53.82;101781.16;4889198;28;114257;-71
2023/03/15 10:14:14;;;;;;;11.55;2.00;;;;;;;11.52;53.68;101772.00;4891160;28;113393;-71
2023/03/15 10:16:49;;;;;;;3.78;1.55;;;;;;;11.63;53.61;101775.13;4887351;28;123233;-71
2023/03/15 10:19:24;;;;;;;5.60;2.17;;;;;;;11.74;53.54;101778.28;4868385;28;122937;-71
2023/03/15 10:21:55;;;;;;;6.85;1.38;;;;;;;11.85;53.48;101778.78;4890614;28;113720;-71
2023/03/15 10:24:43;;;;;;;6.63;1.13;;;;;;;11.96;52.74;101777.53;4889099;28;113977;-71
2023/03/15 10:27:55;;;;;;;3.50;1.25;;;;;;;12.01;52.50;101780.91;4889653;28;123868;-71
2023/03/15 10:30:31;;;;;;;8.73;1.60;;;;;;;12.08;52.26;101782.44;4886041;28;123006;-71
2023/03/15 10:33:01;;;;;;;5.70;1.48;;;;;;;12.15;52.29;101783.94;4884351;28;114523;-71
2023/03/15 10:35:28;;;;;;;5.25;1.50;;;;;;;12.23;52.45;101781.88;4874859;28;114273;-72
2023/03/15 10:37:56;;;;;;;3.97;1.75;;;;;;;12.36;52.11;101784.09;4881743;28;123726;-71
2023/03/15 10:40:40;;;;;;;4.07;1.30;;;;;;;12.49;51.84;101788.00;4888515;28;123534;-71
2023/03/15 10:43:54;;;;;;;4.68;1.42;;;;;;;12.58;51.37;101779.69;4873113;28;115269;-71
2023/03/15 10:46:22;;;;;;;10.18;1.40;;;;;;;12.59;51.08;101784.06;4844701;29;114655;-71
2023/03/15 10:49:05;;;;;;;6.43;1.30;;;;;;;12.56;50.49;101786.81;4873127;28;123815;-71
2023/03/15 10:51:40;;;;;;;5.80;1.40;;;;;;;12.57;50.23;101796.53;4877353;28;124581;-71
2023/03/15 10:54:14;;;;;;;5.35;1.10;;;;;;;12.59;50.52;101800.00;4873342;28;115618;-72
2023/03/15 10:56:43;;;;;;;2.65;1.10;;;;;;;12.61;50.40;101791.97;4873925;28;113659;-71
2023/03/15 10:59:28;;;;;;;4.47;1.60;;;;;;;12.64;50.13;101798.03;4878890;28;124605;-71
2023/03/15 11:02:11;;;;;;;4.68;1.20;;;;;;;12.64;50.01;101798.03;4883803;28;123686;-72
2023/03/15 11:04:46;;;;;;;5.38;1.25;;;;;;;12.66;49.81;101812.13;4874819;28;114272;-72
2023/03/15 11:07:13;;;;;;;3.78;1.38;;;;;;;12.68;49.89;101813.84;4881890;28;114565;-72
2023/03/15 11:09:43;;;;;;;3.90;1.02;;;;;;;12.65;48.81;101821.03;4880238;28;126161;-72
2023/03/15 11:12:28;;;;;;;3.33;1.23;;;;;;;12.57;48.85;101827.56;4879467;28;124079;-72
2023/03/15 11:14:59;;;;;;;4.07;1.10;;;;;;;12.52;49.08;101825.06;4886350;28;113629;-72
2023/03/15 11:17:31;;;;;;;6.55;1.30;;;;;;;12.54;49.07;101812.59;4883678;28;114185;-72
2023/03/15 11:20:34;;;;;;;7.07;1.25;;;;;;;12.59;49.07;101821.25;4884541;28;123469;-72
2023/03/15 11:23:18;;;;;;;2.90;0.90;;;;;;;12.68;48.70;101824.47;4875751;28;125057;-72
2023/03/15 11:25:46;;;;;;;3.45;0.88;;;;;;;12.75;48.87;101841.94;4870187;28;113816;-72
2023/03/15 11:28:21;;;;;;;3.40;0.70;;;;;;;12.79;48.09;101840.88;4886645;28;113891;-72
2023/03/15 11:30:48;;;;;;;;;;;;;;;12.82;49.11;101832.81;4878284;28;124424;-72
2023/03/15 11:33:25;;;;;;;4.28;1.08;;;;;;;12.84;48.36;101841.59;4885188;28;124031;-72
2023/03/15 11:35:56;;;;;;;4.60;1.00;;;;;;;12.89;48.02;101833.44;4880163;28;114773;-72
2023/03/15 11:38:32;;;;;;;2.53;0.75;;;;;;;12.96;47.63;101832.25;4875174;28;112918;-72
2023/03/15 11:41:03;;;;;;;3.67;0.90;;;;;;;13.05;47.55;101835.44;4879228;28;124001;-72
2023/03/15 11:43:46;;;;;;;5.57;0.90;;;;;;;13.12;47.56;101835.19;4887971;28;123293;-72
2023/03/15 11:46:32;;;;;;;5.35;1.10;;;;;;;13.23;47.31;101827.66;4885641;28;113881;-72
2023/03/15 11:49:26;;;;;;;4.18;1.17;;;;;;;13.33;47.17;101829.03;4893676;28;114736;-72